Terminal Aerodrome Forecast
Issued by NWS Wilmington, OH

Home | Current Version | Previous Version | Text Only | Print | Product List | Glossary On
Versions: 1 2 3 4 5 6 7 8 9 10 11 12 13 14
000
FTUS41 KILN 301100
TAFILN
TAF
KILN 301132Z 3012/3112 18005KT P6SM BKN250
     FM301500 20009G16KT P6SM SCT050 SCT120 OVC250
     FM302200 21009KT P6SM VCTS SCT040CB BKN110 OVC250
     FM310300 20008KT P6SM -SHRA VCTS SCT020CB OVC100
     FM310900 20005KT 4SM -SHRA BR VCTS OVC015CB=

USA.gov is the U.S. government's official web portal to all federal, state and local government web resources and services.